sensor_id;sensor_type;location;lat;lon;timestamp;P1;durP1;ratioP1;P2;durP2;ratioP2
462;SDS011;218;51.902;9.542;2023-04-24T00:00:01;1.80;;;1.70;;
462;SDS011;218;51.902;9.542;2023-04-24T00:02:31;2.63;;;2.43;;
462;SDS011;218;51.902;9.542;2023-04-24T00:04:59;3.03;;;2.73;;
462;SDS011;218;51.902;9.542;2023-04-24T00:07:27;2.50;;;2.40;;
462;SDS011;218;51.902;9.542;2023-04-24T00:09:55;2.40;;;2.30;;
462;SDS011;218;51.902;9.542;2023-04-24T00:12:22;2.70;;;2.60;;
462;SDS011;218;51.902;9.542;2023-04-24T00:14:49;2.50;;;2.40;;
462;SDS011;218;51.902;9.542;2023-04-24T00:17:15;2.63;;;2.42;;
462;SDS011;218;51.902;9.542;2023-04-24T00:19:46;3.23;;;3.03;;
462;SDS011;218;51.902;9.542;2023-04-24T00:22:13;2.80;;;2.60;;
462;SDS011;218;51.902;9.542;2023-04-24T00:24:40;2.93;;;2.73;;
462;SDS011;218;51.902;9.542;2023-04-24T00:27:07;2.70;;;2.60;;
462;SDS011;218;51.902;9.542;2023-04-24T00:29:34;2.87;;;2.77;;
462;SDS011;218;51.902;9.542;2023-04-24T00:32:01;2.50;;;2.30;;
462;SDS011;218;51.902;9.542;2023-04-24T00:34:28;2.80;;;2.60;;
462;SDS011;218;51.902;9.542;2023-04-24T00:36:58;2.70;;;2.50;;
462;SDS011;218;51.902;9.542;2023-04-24T00:39:25;3.10;;;2.90;;
462;SDS011;218;51.902;9.542;2023-04-24T00:41:52;2.70;;;2.60;;
462;SDS011;218;51.902;9.542;2023-04-24T00:44:20;2.53;;;2.43;;
462;SDS011;218;51.902;9.542;2023-04-24T00:46:47;6.33;;;3.43;;
462;SDS011;218;51.902;9.542;2023-04-24T00:49:19;2.30;;;2.20;;
462;SDS011;218;51.902;9.542;2023-04-24T00:51:46;2.93;;;2.83;;
462;SDS011;218;51.902;9.542;2023-04-24T00:54:15;2.20;;;2.10;;
462;SDS011;218;51.902;9.542;2023-04-24T00:56:43;2.57;;;2.40;;
462;SDS011;218;51.902;9.542;2023-04-24T00:59:11;3.30;;;2.77;;
462;SDS011;218;51.902;9.542;2023-04-24T01:01:38;2.63;;;2.53;;
462;SDS011;218;51.902;9.542;2023-04-24T01:04:07;2.33;;;2.23;;
462;SDS011;218;51.902;9.542;2023-04-24T01:06:35;2.80;;;2.60;;
462;SDS011;218;51.902;9.542;2023-04-24T01:09:04;2.57;;;2.47;;
462;SDS011;218;51.902;9.542;2023-04-24T01:11:34;2.73;;;2.63;;
462;SDS011;218;51.902;9.542;2023-04-24T01:14:01;2.30;;;2.10;;
462;SDS011;218;51.902;9.542;2023-04-24T01:16:28;3.57;;;2.33;;
462;SDS011;218;51.902;9.542;2023-04-24T01:18:55;2.93;;;2.70;;
462;SDS011;218;51.902;9.542;2023-04-24T01:21:23;2.30;;;2.13;;
462;SDS011;218;51.902;9.542;2023-04-24T01:23:51;2.10;;;2.00;;
462;SDS011;218;51.902;9.542;2023-04-24T01:26:19;2.30;;;2.20;;
462;SDS011;218;51.902;9.542;2023-04-24T01:28:46;2.60;;;2.40;;
462;SDS011;218;51.902;9.542;2023-04-24T01:31:13;2.27;;;2.17;;
462;SDS011;218;51.902;9.542;2023-04-24T01:33:41;2.00;;;1.90;;
462;SDS011;218;51.902;9.542;2023-04-24T01:36:08;2.20;;;2.10;;
462;SDS011;218;51.902;9.542;2023-04-24T01:38:37;1.95;;;1.85;;
462;SDS011;218;51.902;9.542;2023-04-24T01:41:05;2.10;;;2.00;;
462;SDS011;218;51.902;9.542;2023-04-24T01:43:32;2.30;;;2.20;;
462;SDS011;218;51.902;9.542;2023-04-24T01:45:59;2.00;;;1.90;;
462;SDS011;218;51.902;9.542;2023-04-24T01:48:26;3.17;;;2.03;;
462;SDS011;218;51.902;9.542;2023-04-24T01:50:54;2.03;;;1.93;;
462;SDS011;218;51.902;9.542;2023-04-24T01:53:22;1.50;;;1.40;;
462;SDS011;218;51.902;9.542;2023-04-24T01:55:49;1.97;;;1.87;;
462;SDS011;218;51.902;9.542;2023-04-24T01:58:17;2.10;;;2.00;;
462;SDS011;218;51.902;9.542;2023-04-24T02:00:44;1.80;;;1.70;;
462;SDS011;218;51.902;9.542;2023-04-24T02:03:11;1.70;;;1.60;;
462;SDS011;218;51.902;9.542;2023-04-24T02:05:39;2.00;;;1.90;;
462;SDS011;218;51.902;9.542;2023-04-24T02:08:06;1.70;;;1.60;;
462;SDS011;218;51.902;9.542;2023-04-24T02:10:33;1.13;;;1.10;;
462;SDS011;218;51.902;9.542;2023-04-24T02:13:00;2.37;;;2.27;;
462;SDS011;218;51.902;9.542;2023-04-24T02:15:29;2.20;;;2.10;;
462;SDS011;218;51.902;9.542;2023-04-24T02:17:55;2.10;;;2.00;;
462;SDS011;218;51.902;9.542;2023-04-24T02:20:23;1.80;;;1.27;;
462;SDS011;218;51.902;9.542;2023-04-24T02:22:50;1.87;;;1.77;;
462;SDS011;218;51.902;9.542;2023-04-24T02:25:17;1.80;;;1.70;;
462;SDS011;218;51.902;9.542;2023-04-24T02:27:44;1.60;;;1.50;;
462;SDS011;218;51.902;9.542;2023-04-24T02:30:11;1.90;;;1.90;;
462;SDS011;218;51.902;9.542;2023-04-24T02:32:40;1.80;;;1.70;;
462;SDS011;218;51.902;9.542;2023-04-24T02:35:07;1.70;;;1.60;;
462;SDS011;218;51.902;9.542;2023-04-24T02:37:35;1.67;;;1.57;;
462;SDS011;218;51.902;9.542;2023-04-24T02:40:02;2.13;;;2.03;;
462;SDS011;218;51.902;9.542;2023-04-24T02:42:30;1.60;;;1.50;;
462;SDS011;218;51.902;9.542;2023-04-24T02:44:57;1.65;;;1.55;;
462;SDS011;218;51.902;9.542;2023-04-24T02:47:24;1.30;;;1.20;;
462;SDS011;218;51.902;9.542;2023-04-24T02:49:53;1.70;;;1.63;;
462;SDS011;218;51.902;9.542;2023-04-24T02:52:20;1.77;;;1.67;;
462;SDS011;218;51.902;9.542;2023-04-24T02:54:47;2.10;;;2.00;;
462;SDS011;218;51.902;9.542;2023-04-24T02:57:14;1.50;;;1.50;;
462;SDS011;218;51.902;9.542;2023-04-24T02:59:41;1.70;;;1.70;;
462;SDS011;218;51.902;9.542;2023-04-24T03:02:08;2.10;;;2.00;;
462;SDS011;218;51.902;9.542;2023-04-24T03:04:35;1.70;;;1.70;;
462;SDS011;218;51.902;9.542;2023-04-24T03:07:06;1.30;;;1.30;;
462;SDS011;218;51.902;9.542;2023-04-24T03:09:33;1.70;;;1.60;;
462;SDS011;218;51.902;9.542;2023-04-24T03:12:00;1.50;;;1.50;;
462;SDS011;218;51.902;9.542;2023-04-24T03:14:26;1.87;;;1.77;;
462;SDS011;218;51.902;9.542;2023-04-24T03:16:56;1.70;;;1.60;;
462;SDS011;218;51.902;9.542;2023-04-24T03:19:23;1.60;;;1.50;;
462;SDS011;218;51.902;9.542;2023-04-24T03:21:50;2.20;;;2.10;;
462;SDS011;218;51.902;9.542;2023-04-24T03:24:18;1.93;;;1.83;;
462;SDS011;218;51.902;9.542;2023-04-24T03:26:46;2.27;;;2.17;;
462;SDS011;218;51.902;9.542;2023-04-24T03:29:13;1.65;;;1.55;;
462;SDS011;218;51.902;9.542;2023-04-24T03:31:40;2.07;;;1.97;;
462;SDS011;218;51.902;9.542;2023-04-24T03:34:07;1.77;;;1.67;;
462;SDS011;218;51.902;9.542;2023-04-24T03:36:35;1.55;;;1.45;;
462;SDS011;218;51.902;9.542;2023-04-24T03:39:02;1.80;;;1.80;;
462;SDS011;218;51.902;9.542;2023-04-24T03:41:30;1.90;;;1.80;;
462;SDS011;218;51.902;9.542;2023-04-24T03:43:57;1.80;;;1.80;;
462;SDS011;218;51.902;9.542;2023-04-24T03:46:25;2.13;;;2.03;;
462;SDS011;218;51.902;9.542;2023-04-24T03:48:52;1.80;;;1.70;;
462;SDS011;218;51.902;9.542;2023-04-24T03:51:19;2.00;;;1.90;;
462;SDS011;218;51.902;9.542;2023-04-24T03:53:46;1.73;;;1.63;;
462;SDS011;218;51.902;9.542;2023-04-24T03:56:13;1.83;;;1.83;;
462;SDS011;218;51.902;9.542;2023-04-24T03:58:42;2.10;;;2.00;;
462;SDS011;218;51.902;9.542;2023-04-24T04:01:09;1.50;;;1.50;;
462;SDS011;218;51.902;9.542;2023-04-24T04:03:36;1.90;;;1.80;;
462;SDS011;218;51.902;9.542;2023-04-24T04:06:04;2.30;;;2.10;;
462;SDS011;218;51.902;9.542;2023-04-24T04:08:31;1.97;;;1.87;;
462;SDS011;218;51.902;9.542;2023-04-24T04:10:58;1.93;;;1.83;;
462;SDS011;218;51.902;9.542;2023-04-24T04:13:25;2.10;;;2.00;;
462;SDS011;218;51.902;9.542;2023-04-24T04:15:53;2.27;;;2.17;;
462;SDS011;218;51.902;9.542;2023-04-24T04:18:20;1.97;;;1.87;;
462;SDS011;218;51.902;9.542;2023-04-24T04:20:47;2.27;;;2.10;;
462;SDS011;218;51.902;9.542;2023-04-24T04:23:15;1.90;;;1.80;;
462;SDS011;218;51.902;9.542;2023-04-24T04:25:42;1.90;;;1.80;;
462;SDS011;218;51.902;9.542;2023-04-24T04:28:09;1.87;;;1.77;;
462;SDS011;218;51.902;9.542;2023-04-24T04:30:36;1.50;;;1.40;;
462;SDS011;218;51.902;9.542;2023-04-24T04:33:04;1.80;;;1.70;;
462;SDS011;218;51.902;9.542;2023-04-24T04:35:31;1.90;;;1.80;;
462;SDS011;218;51.902;9.542;2023-04-24T04:37:58;1.73;;;1.63;;
462;SDS011;218;51.902;9.542;2023-04-24T04:40:25;2.33;;;2.23;;
462;SDS011;218;51.902;9.542;2023-04-24T04:42:53;1.90;;;1.80;;
462;SDS011;218;51.902;9.542;2023-04-24T04:45:19;1.83;;;1.73;;
462;SDS011;218;51.902;9.542;2023-04-24T04:47:47;2.60;;;2.20;;
462;SDS011;218;51.902;9.542;2023-04-24T04:50:15;2.23;;;2.13;;
462;SDS011;218;51.902;9.542;2023-04-24T04:52:44;2.53;;;2.00;;
462;SDS011;218;51.902;9.542;2023-04-24T04:55:11;2.87;;;2.63;;
462;SDS011;218;51.902;9.542;2023-04-24T04:57:39;2.30;;;2.20;;
462;SDS011;218;51.902;9.542;2023-04-24T05:00:07;2.17;;;2.07;;
462;SDS011;218;51.902;9.542;2023-04-24T05:02:35;2.20;;;1.70;;
462;SDS011;218;51.902;9.542;2023-04-24T05:05:02;2.30;;;2.20;;
462;SDS011;218;51.902;9.542;2023-04-24T05:07:32;2.37;;;2.23;;
462;SDS011;218;51.902;9.542;2023-04-24T05:09:59;2.27;;;2.10;;
462;SDS011;218;51.902;9.542;2023-04-24T05:12:26;4.70;;;2.30;;
462;SDS011;218;51.902;9.542;2023-04-24T05:14:53;2.30;;;2.20;;
462;SDS011;218;51.902;9.542;2023-04-24T05:17:20;5.63;;;2.40;;
462;SDS011;218;51.902;9.542;2023-04-24T05:19:47;2.30;;;2.20;;
462;SDS011;218;51.902;9.542;2023-04-24T05:22:14;2.33;;;2.23;;
462;SDS011;218;51.902;9.542;2023-04-24T05:24:44;2.80;;;2.20;;
462;SDS011;218;51.902;9.542;2023-04-24T05:27:11;3.10;;;2.90;;
462;SDS011;218;51.902;9.542;2023-04-24T05:29:37;2.40;;;2.30;;
462;SDS011;218;51.902;9.542;2023-04-24T05:32:05;1.90;;;1.80;;
462;SDS011;218;51.902;9.542;2023-04-24T05:34:32;2.43;;;2.20;;
462;SDS011;218;51.902;9.542;2023-04-24T05:36:59;2.40;;;2.30;;
462;SDS011;218;51.902;9.542;2023-04-24T05:39:27;2.80;;;2.70;;
462;SDS011;218;51.902;9.542;2023-04-24T05:41:55;2.10;;;2.00;;
462;SDS011;218;51.902;9.542;2023-04-24T05:44:23;1.90;;;1.80;;
462;SDS011;218;51.902;9.542;2023-04-24T05:46:50;2.13;;;2.03;;
462;SDS011;218;51.902;9.542;2023-04-24T05:49:17;3.90;;;2.37;;
462;SDS011;218;51.902;9.542;2023-04-24T05:51:44;1.80;;;1.70;;
462;SDS011;218;51.902;9.542;2023-04-24T05:54:12;1.80;;;1.70;;
462;SDS011;218;51.902;9.542;2023-04-24T05:56:39;2.57;;;2.37;;
462;SDS011;218;51.902;9.542;2023-04-24T05:59:08;2.43;;;2.33;;
462;SDS011;218;51.902;9.542;2023-04-24T06:01:34;1.83;;;1.73;;
462;SDS011;218;51.902;9.542;2023-04-24T06:04:02;2.13;;;2.03;;
462;SDS011;218;51.902;9.542;2023-04-24T06:06:29;1.90;;;1.80;;
462;SDS011;218;51.902;9.542;2023-04-24T06:08:57;2.00;;;1.90;;
462;SDS011;218;51.902;9.542;2023-04-24T06:11:24;4.57;;;2.27;;
462;SDS011;218;51.902;9.542;2023-04-24T06:13:52;2.90;;;2.40;;
462;SDS011;218;51.902;9.542;2023-04-24T06:16:20;2.47;;;2.30;;
462;SDS011;218;51.902;9.542;2023-04-24T06:18:47;2.33;;;2.13;;
462;SDS011;218;51.902;9.542;2023-04-24T06:21:15;2.70;;;2.60;;
462;SDS011;218;51.902;9.542;2023-04-24T06:23:43;3.13;;;2.93;;
462;SDS011;218;51.902;9.542;2023-04-24T06:26:11;2.70;;;2.60;;
462;SDS011;218;51.902;9.542;2023-04-24T06:28:38;2.70;;;2.60;;
462;SDS011;218;51.902;9.542;2023-04-24T06:31:05;2.80;;;2.70;;
462;SDS011;218;51.902;9.542;2023-04-24T06:33:33;2.60;;;2.50;;
462;SDS011;218;51.902;9.542;2023-04-24T06:36:00;2.73;;;2.53;;
462;SDS011;218;51.902;9.542;2023-04-24T06:38:29;3.07;;;2.97;;
462;SDS011;218;51.902;9.542;2023-04-24T06:40:56;2.80;;;2.70;;
462;SDS011;218;51.902;9.542;2023-04-24T06:43:23;2.67;;;2.50;;
462;SDS011;218;51.902;9.542;2023-04-24T06:45:50;3.07;;;2.97;;
462;SDS011;218;51.902;9.542;2023-04-24T06:48:17;2.37;;;2.27;;
462;SDS011;218;51.902;9.542;2023-04-24T06:50:45;2.50;;;2.30;;
462;SDS011;218;51.902;9.542;2023-04-24T06:53:12;2.67;;;2.57;;
462;SDS011;218;51.902;9.542;2023-04-24T06:55:39;2.77;;;2.67;;
462;SDS011;218;51.902;9.542;2023-04-24T06:58:08;3.37;;;3.17;;
462;SDS011;218;51.902;9.542;2023-04-24T07:00:35;3.10;;;2.90;;
462;SDS011;218;51.902;9.542;2023-04-24T07:03:02;3.60;;;3.40;;
462;SDS011;218;51.902;9.542;2023-04-24T07:05:30;3.83;;;3.43;;
462;SDS011;218;51.902;9.542;2023-04-24T07:08:00;4.00;;;3.70;;
462;SDS011;218;51.902;9.542;2023-04-24T07:10:27;3.70;;;3.40;;
462;SDS011;218;51.902;9.542;2023-04-24T07:12:55;5.17;;;4.83;;
462;SDS011;218;51.902;9.542;2023-04-24T07:15:22;4.60;;;4.20;;
462;SDS011;218;51.902;9.542;2023-04-24T07:17:49;5.27;;;4.17;;
462;SDS011;218;51.902;9.542;2023-04-24T07:20:16;5.15;;;4.75;;
462;SDS011;218;51.902;9.542;2023-04-24T07:22:43;5.57;;;4.90;;
462;SDS011;218;51.902;9.542;2023-04-24T07:25:11;5.40;;;4.90;;
462;SDS011;218;51.902;9.542;2023-04-24T07:27:38;5.20;;;4.90;;
462;SDS011;218;51.902;9.542;2023-04-24T07:30:06;5.20;;;4.80;;
462;SDS011;218;51.902;9.542;2023-04-24T07:32:33;4.90;;;4.60;;
462;SDS011;218;51.902;9.542;2023-04-24T07:35:01;4.50;;;4.20;;
462;SDS011;218;51.902;9.542;2023-04-24T07:37:28;4.90;;;4.60;;
462;SDS011;218;51.902;9.542;2023-04-24T07:39:55;6.80;;;4.63;;
462;SDS011;218;51.902;9.542;2023-04-24T07:42:23;4.90;;;4.50;;
462;SDS011;218;51.902;9.542;2023-04-24T07:44:51;4.60;;;4.30;;
462;SDS011;218;51.902;9.542;2023-04-24T07:47:17;5.87;;;5.47;;
462;SDS011;218;51.902;9.542;2023-04-24T07:49:45;4.50;;;4.17;;
462;SDS011;218;51.902;9.542;2023-04-24T07:52:12;6.07;;;5.50;;
462;SDS011;218;51.902;9.542;2023-04-24T07:54:39;6.33;;;5.83;;
462;SDS011;218;51.902;9.542;2023-04-24T07:57:06;6.13;;;5.53;;
462;SDS011;218;51.902;9.542;2023-04-24T07:59:34;6.50;;;5.90;;
462;SDS011;218;51.902;9.542;2023-04-24T08:02:01;6.37;;;5.87;;
462;SDS011;218;51.902;9.542;2023-04-24T08:04:28;6.90;;;6.40;;
462;SDS011;218;51.902;9.542;2023-04-24T08:06:55;6.17;;;5.73;;
462;SDS011;218;51.902;9.542;2023-04-24T08:09:22;6.83;;;6.33;;
462;SDS011;218;51.902;9.542;2023-04-24T08:11:49;6.57;;;6.07;;
462;SDS011;218;51.902;9.542;2023-04-24T08:14:16;6.63;;;6.17;;
462;SDS011;218;51.902;9.542;2023-04-24T08:16:44;6.90;;;6.40;;
462;SDS011;218;51.902;9.542;2023-04-24T08:19:11;6.60;;;6.10;;
462;SDS011;218;51.902;9.542;2023-04-24T08:21:38;5.83;;;5.40;;
462;SDS011;218;51.902;9.542;2023-04-24T08:24:05;6.20;;;5.60;;
462;SDS011;218;51.902;9.542;2023-04-24T08:26:33;4.97;;;4.67;;
462;SDS011;218;51.902;9.542;2023-04-24T08:29:00;4.63;;;4.20;;
462;SDS011;218;51.902;9.542;2023-04-24T08:31:27;6.40;;;5.57;;
462;SDS011;218;51.902;9.542;2023-04-24T08:33:55;4.80;;;4.50;;
462;SDS011;218;51.902;9.542;2023-04-24T08:36:22;4.80;;;4.40;;
462;SDS011;218;51.902;9.542;2023-04-24T08:38:49;5.20;;;4.80;;
462;SDS011;218;51.902;9.542;2023-04-24T08:41:16;4.80;;;4.50;;
462;SDS011;218;51.902;9.542;2023-04-24T08:43:45;4.83;;;4.50;;
462;SDS011;218;51.902;9.542;2023-04-24T08:46:13;5.17;;;4.83;;
462;SDS011;218;51.902;9.542;2023-04-24T08:48:41;4.63;;;4.33;;
462;SDS011;218;51.902;9.542;2023-04-24T08:51:10;4.60;;;4.30;;
462;SDS011;218;51.902;9.542;2023-04-24T08:53:38;5.17;;;4.77;;
462;SDS011;218;51.902;9.542;2023-04-24T08:56:05;4.73;;;4.33;;
462;SDS011;218;51.902;9.542;2023-04-24T08:58:32;3.97;;;3.77;;
462;SDS011;218;51.902;9.542;2023-04-24T09:01:00;6.90;;;5.00;;
462;SDS011;218;51.902;9.542;2023-04-24T09:03:28;4.80;;;4.40;;
462;SDS011;218;51.902;9.542;2023-04-24T09:05:55;4.93;;;4.53;;
462;SDS011;218;51.902;9.542;2023-04-24T09:08:25;4.60;;;4.20;;
462;SDS011;218;51.902;9.542;2023-04-24T09:10:54;4.00;;;3.80;;
462;SDS011;218;51.902;9.542;2023-04-24T09:13:23;4.80;;;4.40;;
462;SDS011;218;51.902;9.542;2023-04-24T09:15:50;3.80;;;3.60;;
462;SDS011;218;51.902;9.542;2023-04-24T09:18:18;4.27;;;3.97;;
462;SDS011;218;51.902;9.542;2023-04-24T09:20:57;4.20;;;4.00;;
462;SDS011;218;51.902;9.542;2023-04-24T09:23:27;4.03;;;3.63;;
462;SDS011;218;51.902;9.542;2023-04-24T09:25:54;3.80;;;3.60;;
462;SDS011;218;51.902;9.542;2023-04-24T09:28:25;4.00;;;3.67;;
462;SDS011;218;51.902;9.542;2023-04-24T09:31:02;4.33;;;4.03;;
462;SDS011;218;51.902;9.542;2023-04-24T09:33:30;4.50;;;4.10;;
462;SDS011;218;51.902;9.542;2023-04-24T09:35:57;4.13;;;3.90;;
462;SDS011;218;51.902;9.542;2023-04-24T09:38:31;3.77;;;3.57;;
462;SDS011;218;51.902;9.542;2023-04-24T09:41:00;3.90;;;3.70;;
462;SDS011;218;51.902;9.542;2023-04-24T09:43:28;4.23;;;4.03;;
462;SDS011;218;51.902;9.542;2023-04-24T09:45:56;4.30;;;4.00;;
462;SDS011;218;51.902;9.542;2023-04-24T09:48:30;4.43;;;4.07;;
462;SDS011;218;51.902;9.542;2023-04-24T09:50:57;3.60;;;3.40;;
462;SDS011;218;51.902;9.542;2023-04-24T09:53:27;4.30;;;4.00;;
462;SDS011;218;51.902;9.542;2023-04-24T09:55:55;5.07;;;4.67;;
462;SDS011;218;51.902;9.542;2023-04-24T09:58:28;5.40;;;5.00;;
462;SDS011;218;51.902;9.542;2023-04-24T10:00:56;4.37;;;4.07;;
462;SDS011;218;51.902;9.542;2023-04-24T10:03:24;4.77;;;4.37;;
462;SDS011;218;51.902;9.542;2023-04-24T10:05:52;4.23;;;3.93;;
462;SDS011;218;51.902;9.542;2023-04-24T10:08:20;3.53;;;3.33;;
462;SDS011;218;51.902;9.542;2023-04-24T10:10:48;3.20;;;3.00;;
462;SDS011;218;51.902;9.542;2023-04-24T10:13:16;3.70;;;3.50;;
462;SDS011;218;51.902;9.542;2023-04-24T10:15:43;2.87;;;2.77;;
462;SDS011;218;51.902;9.542;2023-04-24T10:18:11;3.20;;;2.63;;
462;SDS011;218;51.902;9.542;2023-04-24T10:20:39;2.80;;;2.60;;
462;SDS011;218;51.902;9.542;2023-04-24T10:23:06;2.90;;;2.80;;
462;SDS011;218;51.902;9.542;2023-04-24T10:25:34;3.80;;;2.73;;
462;SDS011;218;51.902;9.542;2023-04-24T10:28:02;3.20;;;3.00;;
462;SDS011;218;51.902;9.542;2023-04-24T10:30:32;2.73;;;2.63;;
462;SDS011;218;51.902;9.542;2023-04-24T10:33:01;2.77;;;2.67;;
462;SDS011;218;51.902;9.542;2023-04-24T10:35:30;2.90;;;2.80;;
462;SDS011;218;51.902;9.542;2023-04-24T10:37:58;2.87;;;2.67;;
462;SDS011;218;51.902;9.542;2023-04-24T10:40:30;2.30;;;2.20;;
462;SDS011;218;51.902;9.542;2023-04-24T10:42:59;2.70;;;2.60;;
462;SDS011;218;51.902;9.542;2023-04-24T10:45:26;3.43;;;3.23;;
462;SDS011;218;51.902;9.542;2023-04-24T10:47:55;3.50;;;3.20;;
462;SDS011;218;51.902;9.542;2023-04-24T10:50:23;3.67;;;3.47;;
462;SDS011;218;51.902;9.542;2023-04-24T10:52:51;3.97;;;3.67;;
462;SDS011;218;51.902;9.542;2023-04-24T10:58:15;3.13;;;3.03;;
462;SDS011;218;51.902;9.542;2023-04-24T11:00:43;3.33;;;3.13;;
462;SDS011;218;51.902;9.542;2023-04-24T11:03:25;3.47;;;3.27;;
462;SDS011;218;51.902;9.542;2023-04-24T11:05:57;3.67;;;3.47;;
462;SDS011;218;51.902;9.542;2023-04-24T11:08:32;3.27;;;3.17;;
462;SDS011;218;51.902;9.542;2023-04-24T11:11:03;3.43;;;3.23;;
462;SDS011;218;51.902;9.542;2023-04-24T11:16:25;3.57;;;3.37;;
462;SDS011;218;51.902;9.542;2023-04-24T11:19:01;3.33;;;3.20;;
462;SDS011;218;51.902;9.542;2023-04-24T11:21:40;3.23;;;3.03;;
462;SDS011;218;51.902;9.542;2023-04-24T11:26:53;3.47;;;3.27;;
462;SDS011;218;51.902;9.542;2023-04-24T11:29:21;2.70;;;2.60;;
462;SDS011;218;51.902;9.542;2023-04-24T11:31:49;2.00;;;1.90;;
462;SDS011;218;51.902;9.542;2023-04-24T11:34:17;1.30;;;1.20;;
462;SDS011;218;51.902;9.542;2023-04-24T11:36:45;1.67;;;1.57;;
462;SDS011;218;51.902;9.542;2023-04-24T11:39:12;1.80;;;1.70;;
462;SDS011;218;51.902;9.542;2023-04-24T11:41:39;1.83;;;1.73;;
462;SDS011;218;51.902;9.542;2023-04-24T11:44:08;1.93;;;1.93;;
462;SDS011;218;51.902;9.542;2023-04-24T11:46:35;1.70;;;1.60;;
462;SDS011;218;51.902;9.542;2023-04-24T11:49:05;1.90;;;1.80;;
462;SDS011;218;51.902;9.542;2023-04-24T11:51:33;2.77;;;1.57;;
462;SDS011;218;51.902;9.542;2023-04-24T11:54:01;1.97;;;1.87;;
462;SDS011;218;51.902;9.542;2023-04-24T11:56:28;1.70;;;1.70;;
462;SDS011;218;51.902;9.542;2023-04-24T11:58:55;1.50;;;1.50;;
462;SDS011;218;51.902;9.542;2023-04-24T12:01:22;1.47;;;1.47;;
462;SDS011;218;51.902;9.542;2023-04-24T12:03:49;1.33;;;1.33;;
462;SDS011;218;51.902;9.542;2023-04-24T12:06:17;1.80;;;1.70;;
462;SDS011;218;51.902;9.542;2023-04-24T12:08:48;1.60;;;1.60;;
462;SDS011;218;51.902;9.542;2023-04-24T12:11:20;1.60;;;1.60;;
462;SDS011;218;51.902;9.542;2023-04-24T12:13:47;1.83;;;1.77;;
462;SDS011;218;51.902;9.542;2023-04-24T12:16:14;2.93;;;1.83;;
462;SDS011;218;51.902;9.542;2023-04-24T12:18:42;2.30;;;2.20;;
462;SDS011;218;51.902;9.542;2023-04-24T12:21:16;3.80;;;2.50;;
462;SDS011;218;51.902;9.542;2023-04-24T12:23:44;1.73;;;1.73;;
462;SDS011;218;51.902;9.542;2023-04-24T12:26:14;2.00;;;1.90;;
462;SDS011;218;51.902;9.542;2023-04-24T12:28:43;2.27;;;2.17;;
462;SDS011;218;51.902;9.542;2023-04-24T12:31:10;2.17;;;2.07;;
462;SDS011;218;51.902;9.542;2023-04-24T12:33:37;2.10;;;2.00;;
462;SDS011;218;51.902;9.542;2023-04-24T12:36:04;2.00;;;1.90;;
462;SDS011;218;51.902;9.542;2023-04-24T12:38:31;2.00;;;1.90;;
462;SDS011;218;51.902;9.542;2023-04-24T12:41:07;1.80;;;1.70;;
462;SDS011;218;51.902;9.542;2023-04-24T12:43:35;1.63;;;1.53;;
462;SDS011;218;51.902;9.542;2023-04-24T12:46:03;1.50;;;1.40;;
462;SDS011;218;51.902;9.542;2023-04-24T12:48:30;1.30;;;1.20;;
462;SDS011;218;51.902;9.542;2023-04-24T12:50:57;1.50;;;1.50;;
462;SDS011;218;51.902;9.542;2023-04-24T12:53:26;1.70;;;1.70;;
462;SDS011;218;51.902;9.542;2023-04-24T12:55:55;1.40;;;1.40;;
462;SDS011;218;51.902;9.542;2023-04-24T12:58:22;1.40;;;1.40;;
462;SDS011;218;51.902;9.542;2023-04-24T13:00:50;1.30;;;1.30;;
462;SDS011;218;51.902;9.542;2023-04-24T13:03:18;1.80;;;1.70;;
462;SDS011;218;51.902;9.542;2023-04-24T13:05:47;1.57;;;1.47;;
462;SDS011;218;51.902;9.542;2023-04-24T13:08:14;1.60;;;1.60;;
462;SDS011;218;51.902;9.542;2023-04-24T13:10:41;1.10;;;1.10;;
462;SDS011;218;51.902;9.542;2023-04-24T13:13:08;1.60;;;1.60;;
462;SDS011;218;51.902;9.542;2023-04-24T13:15:35;1.37;;;1.27;;
462;SDS011;218;51.902;9.542;2023-04-24T13:18:04;1.50;;;1.50;;
462;SDS011;218;51.902;9.542;2023-04-24T13:20:31;1.63;;;1.63;;
462;SDS011;218;51.902;9.542;2023-04-24T13:23:00;1.57;;;1.57;;
462;SDS011;218;51.902;9.542;2023-04-24T13:25:27;0.97;;;0.97;;
462;SDS011;218;51.902;9.542;2023-04-24T13:27:54;1.60;;;1.50;;
462;SDS011;218;51.902;9.542;2023-04-24T13:30:21;1.47;;;1.37;;
462;SDS011;218;51.902;9.542;2023-04-24T13:32:48;1.83;;;1.73;;
462;SDS011;218;51.902;9.542;2023-04-24T13:35:16;1.60;;;1.60;;
462;SDS011;218;51.902;9.542;2023-04-24T13:37:43;1.50;;;1.50;;
462;SDS011;218;51.902;9.542;2023-04-24T13:40:11;1.30;;;1.20;;
462;SDS011;218;51.902;9.542;2023-04-24T13:42:37;1.40;;;1.40;;
462;SDS011;218;51.902;9.542;2023-04-24T13:45:05;2.00;;;1.90;;
462;SDS011;218;51.902;9.542;2023-04-24T13:47:32;2.17;;;2.07;;
462;SDS011;218;51.902;9.542;2023-04-24T13:50:00;1.80;;;1.70;;
462;SDS011;218;51.902;9.542;2023-04-24T13:52:29;1.90;;;1.80;;
462;SDS011;218;51.902;9.542;2023-04-24T13:54:56;2.00;;;1.90;;
462;SDS011;218;51.902;9.542;2023-04-24T13:57:22;2.27;;;2.07;;
462;SDS011;218;51.902;9.542;2023-04-24T13:59:49;1.90;;;1.80;;
462;SDS011;218;51.902;9.542;2023-04-24T14:02:16;2.80;;;2.60;;
462;SDS011;218;51.902;9.542;2023-04-24T14:04:44;2.53;;;2.40;;
462;SDS011;218;51.902;9.542;2023-04-24T14:07:13;2.10;;;2.00;;
462;SDS011;218;51.902;9.542;2023-04-24T14:09:41;2.30;;;2.20;;
462;SDS011;218;51.902;9.542;2023-04-24T14:12:08;2.83;;;2.63;;
462;SDS011;218;51.902;9.542;2023-04-24T14:14:35;2.40;;;2.30;;
462;SDS011;218;51.902;9.542;2023-04-24T14:17:02;2.30;;;2.20;;
462;SDS011;218;51.902;9.542;2023-04-24T14:19:29;2.33;;;2.23;;
462;SDS011;218;51.902;9.542;2023-04-24T14:21:56;2.33;;;2.20;;
462;SDS011;218;51.902;9.542;2023-04-24T14:24:23;2.33;;;2.13;;
462;SDS011;218;51.902;9.542;2023-04-24T14:26:52;2.30;;;2.20;;
462;SDS011;218;51.902;9.542;2023-04-24T14:29:19;2.20;;;2.10;;
462;SDS011;218;51.902;9.542;2023-04-24T14:31:46;2.27;;;2.07;;
462;SDS011;218;51.902;9.542;2023-04-24T14:34:13;2.07;;;1.97;;
462;SDS011;218;51.902;9.542;2023-04-24T14:36:40;2.80;;;2.15;;
462;SDS011;218;51.902;9.542;2023-04-24T14:39:08;2.90;;;2.57;;
462;SDS011;218;51.902;9.542;2023-04-24T14:41:36;3.50;;;3.30;;
462;SDS011;218;51.902;9.542;2023-04-24T14:44:05;3.00;;;2.83;;
462;SDS011;218;51.902;9.542;2023-04-24T14:46:33;3.00;;;2.80;;
462;SDS011;218;51.902;9.542;2023-04-24T14:49:00;3.83;;;3.40;;
462;SDS011;218;51.902;9.542;2023-04-24T14:51:27;4.07;;;3.77;;
462;SDS011;218;51.902;9.542;2023-04-24T14:53:55;3.97;;;3.70;;
462;SDS011;218;51.902;9.542;2023-04-24T14:56:22;4.20;;;3.90;;
462;SDS011;218;51.902;9.542;2023-04-24T14:58:49;4.37;;;3.93;;
462;SDS011;218;51.902;9.542;2023-04-24T15:01:18;5.00;;;4.53;;
462;SDS011;218;51.902;9.542;2023-04-24T15:03:45;4.70;;;4.30;;
462;SDS011;218;51.902;9.542;2023-04-24T15:06:12;4.30;;;3.90;;
462;SDS011;218;51.902;9.542;2023-04-24T15:08:40;5.23;;;4.87;;
462;SDS011;218;51.902;9.542;2023-04-24T15:11:07;8.10;;;4.90;;
462;SDS011;218;51.902;9.542;2023-04-24T15:13:34;4.80;;;4.50;;
462;SDS011;218;51.902;9.542;2023-04-24T15:16:01;5.57;;;5.10;;
462;SDS011;218;51.902;9.542;2023-04-24T15:18:30;5.03;;;4.63;;
462;SDS011;218;51.902;9.542;2023-04-24T15:20:56;5.37;;;4.90;;
462;SDS011;218;51.902;9.542;2023-04-24T15:23:24;6.57;;;5.28;;
462;SDS011;218;51.902;9.542;2023-04-24T15:25:50;6.83;;;6.20;;
462;SDS011;218;51.902;9.542;2023-04-24T15:28:17;10.53;;;6.60;;
462;SDS011;218;51.902;9.542;2023-04-24T15:30:46;6.47;;;5.87;;
462;SDS011;218;51.902;9.542;2023-04-24T15:33:13;8.50;;;5.20;;
462;SDS011;218;51.902;9.542;2023-04-24T15:35:42;5.10;;;4.60;;
462;SDS011;218;51.902;9.542;2023-04-24T15:38:09;6.53;;;5.80;;
462;SDS011;218;51.902;9.542;2023-04-24T15:40:36;7.23;;;6.00;;
462;SDS011;218;51.902;9.542;2023-04-24T15:43:03;6.50;;;5.90;;
462;SDS011;218;51.902;9.542;2023-04-24T15:45:30;7.20;;;6.60;;
462;SDS011;218;51.902;9.542;2023-04-24T15:47:57;6.37;;;5.87;;
462;SDS011;218;51.902;9.542;2023-04-24T15:50:25;7.30;;;6.70;;
462;SDS011;218;51.902;9.542;2023-04-24T15:52:54;6.53;;;5.85;;
462;SDS011;218;51.902;9.542;2023-04-24T15:55:21;7.00;;;6.40;;